Time;durP1;ratioP1;P1;durP2;ratioP2;P2;SDS_P1;SDS_P2;PMS_P1;PMS_P2;Temp;Humidity;BMP_temperature;BMP_pressure;BME280_temperature;BME280_humidity;BME280_pressure;Samples;Min_cycle;Max_cycle;Signal;HPM_P1;HPM_P2
2021/06/29 00:01:11;;;;;;;7.43;4.88;;;;;;;18.45;79.73;99128.06;5032737;28;20049;-61
2021/06/29 00:03:36;;;;;;;9.13;4.70;;;;;;;18.69;79.28;99122.47;5033310;28;20491;-61
2021/06/29 00:06:02;;;;;;;11.23;4.85;;;;;;;18.72;78.50;99133.56;5032817;28;20033;-61
2021/06/29 00:08:28;;;;;;;13.88;4.45;;;;;;;18.49;78.40;99123.63;5033526;28;20380;-61
2021/06/29 00:10:53;;;;;;;12.50;4.90;;;;;;;18.61;78.68;99125.88;5032921;28;20033;-62
2021/06/29 00:13:20;;;;;;;8.30;5.05;;;;;;;18.57;79.55;99124.84;5033140;28;20375;-61
2021/06/29 00:15:45;;;;;;;13.75;4.57;;;;;;;18.60;78.66;99122.38;5032708;28;20041;-61
2021/06/29 00:18:11;;;;;;;8.50;4.78;;;;;;;18.61;79.06;99115.03;5033067;28;20028;-61
2021/06/29 00:20:36;;;;;;;12.23;5.00;;;;;;;18.36;78.96;99121.69;5032503;28;20041;-61
2021/06/29 00:23:02;;;;;;;13.05;4.95;;;;;;;18.32;79.66;99124.16;5033311;28;20026;-61
2021/06/29 00:25:28;;;;;;;15.65;5.22;;;;;;;18.33;79.52;99120.38;5032653;28;20033;-61
2021/06/29 00:27:53;;;;;;;7.53;4.32;;;;;;;18.27;79.87;99132.38;5033074;28;20357;-61
2021/06/29 00:30:19;;;;;;;10.88;4.55;;;;;;;18.30;79.45;99119.06;5029999;28;20111;-62
2021/06/29 00:32:44;;;;;;;12.68;5.05;;;;;;;18.39;80.12;99115.66;5013166;28;20033;-62
2021/06/29 00:35:10;;;;;;;11.55;5.15;;;;;;;18.38;79.89;99111.34;5013821;28;20424;-62
2021/06/29 00:37:36;;;;;;;16.15;4.97;;;;;;;17.83;81.51;99106.50;5033013;28;20352;-61
2021/06/29 00:40:06;;;;;;;13.35;4.90;;;;;;;17.85;81.90;99101.59;5032442;28;20468;-61
2021/06/29 00:42:31;;;;;;;13.43;5.00;;;;;;;17.92;81.73;99101.19;5033158;28;20396;-61
2021/06/29 00:44:56;;;;;;;10.90;5.20;;;;;;;18.03;81.62;99099.97;5035718;28;20036;-61
2021/06/29 00:47:22;;;;;;;12.73;5.10;;;;;;;17.92;81.20;99099.28;5035202;28;20056;-61
2021/06/29 00:49:47;;;;;;;11.10;5.00;;;;;;;18.10;81.02;99086.84;5036743;28;20036;-62
2021/06/29 00:52:13;;;;;;;14.32;5.10;;;;;;;17.99;80.98;99090.78;5035228;28;20029;-61
2021/06/29 00:54:39;;;;;;;12.80;5.07;;;;;;;17.91;81.34;99084.13;5035472;28;20021;-61
2021/06/29 00:57:09;;;;;;;12.77;5.03;;;;;;;18.06;80.78;99089.31;5036204;28;20372;-61
2021/06/29 00:59:35;;;;;;;8.43;4.93;;;;;;;17.99;81.31;99090.78;5035517;28;20033;-61
2021/06/29 01:02:00;;;;;;;11.45;4.90;;;;;;;18.05;81.03;99095.06;5035875;28;20042;-61
2021/06/29 01:04:25;;;;;;;8.73;5.40;;;;;;;18.06;81.89;99093.94;5036450;28;20087;-61
2021/06/29 01:06:52;;;;;;;6.88;5.13;;;;;;;17.90;81.92;99093.38;5036258;28;20037;-61
2021/06/29 01:09:18;;;;;;;13.13;5.03;;;;;;;17.65;82.01;99095.31;5035250;28;20112;-61
2021/06/29 01:11:44;;;;;;;13.70;6.63;;;;;;;17.95;82.07;99103.34;5022000;28;20045;-61
2021/06/29 01:14:11;;;;;;;8.85;5.30;;;;;;;18.14;80.54;99104.09;5016615;28;20030;-61
2021/06/29 01:16:36;;;;;;;12.52;5.20;;;;;;;18.16;80.07;99093.78;5029164;28;20052;-61
2021/06/29 01:19:02;;;;;;;17.05;5.20;;;;;;;17.97;81.22;99095.69;5034964;28;20029;-61
2021/06/29 01:21:34;;;;;;;10.30;4.97;;;;;;;17.89;81.26;99091.75;5035749;28;20037;-62
2021/06/29 01:24:01;;;;;;;13.38;5.15;;;;;;;17.96;81.48;99085.97;5036347;28;20025;-61
2021/06/29 01:26:29;;;;;;;9.45;5.10;;;;;;;17.77;81.65;99075.91;5023831;28;20034;-61
2021/06/29 01:29:07;;;;;;;10.85;5.13;;;;;;;17.81;81.47;99082.38;5016334;28;20103;-61
2021/06/29 01:31:33;;;;;;;10.93;5.05;;;;;;;17.95;82.96;99074.31;5028297;28;20490;-61
2021/06/29 01:33:59;;;;;;;11.93;5.97;;;;;;;18.07;80.46;99079.25;5035903;28;20029;-61
2021/06/29 01:36:33;;;;;;;14.35;5.30;;;;;;;17.57;82.37;99081.59;5034233;28;20065;-61
2021/06/29 01:38:58;;;;;;;18.58;4.95;;;;;;;17.42;83.23;99074.47;5035969;28;20383;-61
2021/06/29 01:41:24;;;;;;;12.32;5.35;;;;;;;17.24;83.89;99067.94;5035385;28;20041;-61
2021/06/29 01:46:16;;;;;;;13.93;5.75;;;;;;;17.24;83.92;99062.53;5035462;28;20064;-61
2021/06/29 01:48:53;;;;;;;9.82;5.40;;;;;;;17.09;84.75;99060.00;5035885;28;20482;-61
2021/06/29 01:51:18;;;;;;;19.63;5.60;;;;;;;17.20;84.13;99065.03;5024626;28;20030;-61
2021/06/29 01:53:46;;;;;;;12.48;5.10;;;;;;;17.17;84.27;99056.66;5015938;28;20385;-61
2021/06/29 01:56:14;;;;;;;11.40;5.85;;;;;;;17.06;84.55;99055.19;5024796;28;20053;-61
2021/06/29 01:58:48;;;;;;;15.32;6.15;;;;;;;17.01;85.04;99056.84;5035451;28;20468;-61
2021/06/29 02:01:13;;;;;;;16.90;5.82;;;;;;;16.92;85.52;99055.88;5034794;28;20054;-61
2021/06/29 02:03:38;;;;;;;13.63;5.95;;;;;;;16.91;85.51;99046.13;5035410;28;20025;-61
2021/06/29 02:06:04;;;;;;;9.00;6.10;;;;;;;16.90;85.30;99047.25;5034872;28;20037;-61
2021/06/29 02:08:29;;;;;;;18.48;6.15;;;;;;;16.84;85.84;99042.16;5035270;28;20033;-61
2021/06/29 02:10:55;;;;;;;14.05;6.25;;;;;;;16.86;85.83;99050.81;5034798;28;20037;-61
2021/06/29 02:13:20;;;;;;;20.85;6.25;;;;;;;16.97;85.14;99045.00;5033994;28;20026;-61
2021/06/29 02:15:46;;;;;;;16.85;6.10;;;;;;;16.78;86.08;99044.94;5034969;28;20094;-61
2021/06/29 02:18:11;;;;;;;18.50;6.03;;;;;;;16.59;86.49;99031.28;5035096;28;20337;-61
2021/06/29 02:20:37;;;;;;;18.00;6.60;;;;;;;16.86;85.87;99035.38;5034655;28;20037;-61
2021/06/29 02:23:03;;;;;;;14.38;6.30;;;;;;;17.11;84.10;99041.59;5035073;28;20025;-61
2021/06/29 02:25:28;;;;;;;16.52;5.68;;;;;;;17.07;83.99;99035.13;5030724;28;20030;-61
2021/06/29 02:27:53;;;;;;;11.70;5.43;;;;;;;17.07;84.53;99045.94;5015140;28;20026;-61
2021/06/29 02:30:19;;;;;;;9.65;5.10;;;;;;;16.93;85.06;99041.25;5017347;28;20045;-61
2021/06/29 02:32:44;;;;;;;14.15;5.38;;;;;;;16.88;85.41;99046.72;5034833;28;20450;-61
2021/06/29 02:35:10;;;;;;;15.10;5.50;;;;;;;16.77;85.62;99043.31;5034404;28;20063;-61
2021/06/29 02:37:35;;;;;;;14.48;5.68;;;;;;;16.83;86.16;99035.97;5034731;28;20021;-61
2021/06/29 02:40:01;;;;;;;11.43;5.60;;;;;;;16.92;85.18;99039.63;5034154;28;20033;-62
2021/06/29 02:42:26;;;;;;;15.98;5.95;;;;;;;16.83;85.47;99027.84;5015198;28;20022;-61
2021/06/29 02:44:52;;;;;;;21.00;5.93;;;;;;;16.84;85.58;99025.94;5014785;28;20018;-61
2021/06/29 02:47:17;;;;;;;13.75;5.20;;;;;;;16.94;85.56;99025.81;5032984;28;20030;-61
2021/06/29 02:49:43;;;;;;;13.73;5.43;;;;;;;16.95;85.56;99033.66;5034577;28;20034;-61
2021/06/29 02:52:08;;;;;;;17.15;5.93;;;;;;;16.93;84.82;99038.53;5015489;28;20052;-61
2021/06/29 02:54:34;;;;;;;24.13;5.95;;;;;;;16.87;84.89;99028.84;5014660;28;20022;-61
2021/06/29 02:56:59;;;;;;;16.17;5.45;;;;;;;16.80;84.98;99031.13;5030503;28;20045;-61
2021/06/29 02:59:25;;;;;;;12.18;5.38;;;;;;;16.70;85.09;99039.31;5032409;28;20095;-61
2021/06/29 03:01:51;;;;;;;16.35;5.20;;;;;;;16.55;86.00;99043.00;5033706;28;20046;-61
2021/06/29 03:04:16;;;;;;;17.08;5.60;;;;;;;16.45;86.16;99035.78;5034376;28;20044;-61
2021/06/29 03:06:41;;;;;;;15.05;5.75;;;;;;;16.69;85.48;99035.00;5033231;28;20034;-61
2021/06/29 03:09:08;;;;;;;12.07;5.30;;;;;;;16.46;86.30;99031.19;5034134;28;20034;-61
2021/06/29 03:11:34;;;;;;;15.95;5.38;;;;;;;16.59;84.91;99020.47;5033715;28;20041;-61
2021/06/29 03:13:59;;;;;;;20.85;6.78;;;;;;;16.53;84.74;99016.22;5034259;28;20082;-61
2021/06/29 03:16:25;;;;;;;18.92;5.45;;;;;;;16.40;85.47;99022.31;5033754;28;20060;-61
2021/06/29 03:18:50;;;;;;;16.40;5.40;;;;;;;16.70;84.18;99036.59;5032779;28;20083;-61
2021/06/29 03:21:16;;;;;;;15.80;5.50;;;;;;;16.56;84.90;99036.47;5033633;28;20037;-61
2021/06/29 03:23:41;;;;;;;15.65;5.35;;;;;;;16.63;84.66;99036.94;5033970;28;20029;-61
2021/06/29 03:26:07;;;;;;;14.05;5.65;;;;;;;16.65;84.28;99050.19;5033526;28;20041;-61
2021/06/29 03:28:32;;;;;;;20.60;5.10;;;;;;;16.54;84.38;99054.91;5033990;28;20030;-61
2021/06/29 03:30:58;;;;;;;16.98;5.15;;;;;;;16.52;84.44;99055.16;5024326;28;20049;-61
2021/06/29 03:33:23;;;;;;;15.30;5.15;;;;;;;16.83;83.05;99057.59;5014071;28;20053;-61
2021/06/29 03:35:49;;;;;;;18.92;5.78;;;;;;;16.56;84.43;99052.72;5020162;28;20353;-61
2021/06/29 03:38:14;;;;;;;13.15;5.00;;;;;;;16.51;84.46;99060.88;5032345;28;20056;-61
2021/06/29 03:40:39;;;;;;;15.75;5.53;;;;;;;16.48;84.21;99051.44;5033202;28;20048;-61
2021/06/29 03:43:05;;;;;;;15.60;5.47;;;;;;;16.56;84.32;99050.81;5033481;28;20029;-61
2021/06/29 03:45:30;;;;;;;10.93;5.03;;;;;;;16.46;84.43;99053.63;5032584;28;20053;-61
2021/06/29 03:47:56;;;;;;;10.68;5.30;;;;;;;17.08;82.08;99056.50;5032239;28;20028;-61
2021/06/29 03:50:21;;;;;;;14.18;4.90;;;;;;;17.21;81.29;99063.13;5031934;28;20034;-62
2021/06/29 03:52:47;;;;;;;11.35;5.20;;;;;;;17.07;81.86;99052.16;5033460;28;20030;-61
2021/06/29 03:55:12;;;;;;;14.50;5.18;;;;;;;17.13;81.60;99061.06;5033154;28;20038;-62
2021/06/29 03:57:38;;;;;;;15.30;5.43;;;;;;;16.87;82.72;99064.03;5033426;28;20025;-61
2021/06/29 04:00:07;;;;;;;14.68;4.97;;;;;;;16.78;83.45;99071.19;5033168;28;20176;-62
2021/06/29 04:02:32;;;;;;;21.33;5.35;;;;;;;16.92;82.97;99066.69;5033111;28;20111;-61
2021/06/29 04:04:58;;;;;;;18.50;5.25;;;;;;;17.01;82.32;99070.38;5033300;28;20376;-61
2021/06/29 04:07:25;;;;;;;15.30;4.60;;;;;;;17.22;81.75;99064.72;5012120;28;20038;-61
2021/06/29 04:09:50;;;;;;;10.02;4.40;;;;;;;17.32;81.21;99061.88;5012140;28;20022;-61
2021/06/29 04:12:16;;;;;;;12.25;4.30;;;;;;;17.36;80.73;99068.34;5031471;28;20511;-61
2021/06/29 04:14:41;;;;;;;14.35;4.97;;;;;;;17.35;81.13;99060.50;5031941;28;20386;-61
2021/06/29 04:17:07;;;;;;;13.82;4.93;;;;;;;17.26;81.46;99060.34;5032426;28;20042;-61
2021/06/29 04:19:32;;;;;;;15.07;4.90;;;;;;;17.36;80.59;99049.38;5032165;28;20033;-61
2021/06/29 04:21:58;;;;;;;15.95;4.63;;;;;;;17.65;79.92;99051.16;5032505;28;20037;-61
2021/06/29 04:24:24;;;;;;;12.93;4.65;;;;;;;17.33;80.38;99039.13;5033025;28;20022;-61
2021/06/29 04:26:49;;;;;;;23.90;5.07;;;;;;;17.30;80.34;99042.44;5032624;28;20044;-61
2021/06/29 04:29:15;;;;;;;10.38;4.75;;;;;;;17.50;80.65;99048.63;5032916;28;20388;-61
2021/06/29 04:31:40;;;;;;;13.55;4.75;;;;;;;17.37;80.67;99044.75;5031220;28;20037;-61
2021/06/29 04:34:05;;;;;;;11.25;4.95;;;;;;;17.62;79.81;99043.59;5015055;28;20028;-61
2021/06/29 04:36:31;;;;;;;7.00;4.53;;;;;;;17.57;79.80;99054.50;5020161;28;20034;-61
2021/06/29 04:38:56;;;;;;;13.20;4.80;;;;;;;17.38;80.95;99051.81;5011768;28;20033;-61
2021/06/29 04:41:22;;;;;;;12.45;4.97;;;;;;;17.38;81.64;99057.22;5023760;28;20033;-61
2021/06/29 04:43:47;;;;;;;10.52;4.80;;;;;;;17.34;81.87;99062.41;5033020;28;20076;-61
2021/06/29 04:46:13;;;;;;;14.75;4.75;;;;;;;17.33;82.00;99054.56;5032529;28;20430;-61
2021/06/29 04:48:40;;;;;;;12.77;5.22;;;;;;;17.21;82.29;99058.50;5032728;28;20033;-61
2021/06/29 04:51:05;;;;;;;17.50;5.30;;;;;;;17.23;82.39;99050.09;5023455;28;20056;-61
2021/06/29 04:53:31;;;;;;;13.82;4.90;;;;;;;17.23;82.22;99044.69;5012773;28;20469;-61
2021/06/29 04:55:56;;;;;;;11.13;4.95;;;;;;;17.23;82.53;99036.56;5019239;28;20048;-61
2021/06/29 04:58:22;;;;;;;12.48;5.38;;;;;;;17.25;82.38;99040.59;5031751;28;20036;-61
2021/06/29 05:00:49;;;;;;;8.45;5.07;;;;;;;17.19;82.53;99043.63;5032241;28;20065;-61
2021/06/29 05:03:15;;;;;;;9.95;5.60;;;;;;;17.22;82.66;99045.75;5031376;28;20075;-61
2021/06/29 05:05:40;;;;;;;11.00;5.43;;;;;;;17.22;82.76;99053.88;5026743;28;20034;-62
2021/06/29 05:08:07;;;;;;;13.32;5.32;;;;;;;17.17;83.04;99037.69;4995395;28;20435;-61
2021/06/29 05:10:32;;;;;;;12.55;5.20;;;;;;;17.25;81.76;99031.66;5015600;28;20037;-61
2021/06/29 05:12:58;;;;;;;10.55;5.20;;;;;;;17.40;81.29;99038.78;5032778;28;20029;-61
2021/06/29 05:15:23;;;;;;;11.32;5.10;;;;;;;17.38;81.30;99036.34;5032013;28;20048;-61
2021/06/29 05:17:48;;;;;;;8.45;4.82;;;;;;;17.43;81.24;99038.19;5032643;28;20021;-61
2021/06/29 05:20:14;;;;;;;13.40;5.50;;;;;;;17.52;81.20;99046.44;5030220;28;20037;-61
2021/06/29 05:22:40;;;;;;;12.73;5.55;;;;;;;17.43;81.42;99049.81;5012711;28;20473;-61
2021/06/29 05:25:06;;;;;;;8.45;5.47;;;;;;;17.39;82.08;99056.09;5012939;28;20022;-61
2021/06/29 05:27:31;;;;;;;10.63;5.82;;;;;;;17.39;81.50;99056.91;5032417;28;20105;-61
2021/06/29 05:29:57;;;;;;;9.93;5.70;;;;;;;17.52;81.24;99060.78;5032445;28;20018;-61
2021/06/29 05:32:23;;;;;;;14.45;5.57;;;;;;;17.61;80.65;99047.41;5016216;28;20038;-61
2021/06/29 05:34:48;;;;;;;10.82;4.90;;;;;;;17.78;80.13;99049.59;5016217;28;20400;-62
2021/06/29 05:37:13;;;;;;;11.77;5.25;;;;;;;17.89;79.73;99054.59;5033865;28;20037;-61
2021/06/29 05:39:39;;;;;;;12.55;5.22;;;;;;;18.03;78.73;99051.16;5036062;28;20021;-61
2021/06/29 05:42:05;;;;;;;8.18;5.20;;;;;;;18.18;78.51;99050.91;5017286;28;20084;-61
2021/06/29 05:44:30;;;;;;;16.80;4.88;;;;;;;18.14;78.67;99035.50;5016228;28;20041;-61
2021/06/29 05:46:56;;;;;;;10.30;4.75;;;;;;;18.25;77.60;99043.19;5015239;28;20107;-61
2021/06/29 05:49:22;;;;;;;10.07;4.95;;;;;;;18.22;77.48;99049.22;5015973;28;20034;-61
2021/06/29 05:51:48;;;;;;;9.77;4.85;;;;;;;18.39;77.83;99053.25;5030033;28;20088;-62
2021/06/29 05:54:16;;;;;;;11.60;4.85;;;;;;;18.51;77.26;99056.28;5035737;28;20112;-62
2021/06/29 05:56:42;;;;;;;10.77;5.05;;;;;;;18.71;76.44;99050.47;5035377;28;20040;-61
2021/06/29 05:59:08;;;;;;;10.77;4.70;;;;;;;18.62;76.79;99046.06;5035547;28;20054;-62
2021/06/29 06:01:34;;;;;;;13.43;4.90;;;;;;;18.74;76.25;99055.31;5033937;28;20054;-62
2021/06/29 06:03:59;;;;;;;15.38;4.68;;;;;;;19.12;74.86;99048.91;5034306;28;20034;-62
2021/06/29 06:06:24;;;;;;;8.65;4.20;;;;;;;19.03;74.84;99051.53;5035142;28;20103;-62
2021/06/29 06:08:50;;;;;;;11.18;4.72;;;;;;;19.15;73.59;99049.13;5034481;28;20502;-62
2021/06/29 06:11:15;;;;;;;8.35;4.57;;;;;;;19.27;73.41;99051.31;5033626;28;20446;-62
2021/06/29 06:13:41;;;;;;;7.97;4.05;;;;;;;19.16;73.47;99044.47;5035499;28;20472;-61
2021/06/29 06:16:07;;;;;;;12.95;4.07;;;;;;;19.46;73.42;99037.59;5034553;28;20038;-62
2021/06/29 06:18:32;;;;;;;5.22;3.58;;;;;;;19.63;70.84;99030.72;5035177;28;20025;-62
2021/06/29 06:20:58;;;;;;;9.88;3.53;;;;;;;20.84;65.96;99034.22;5034669;28;20492;-61
2021/06/29 06:23:23;;;;;;;8.65;3.47;;;;;;;20.00;69.48;99040.47;5035280;28;20026;-62
2021/06/29 06:25:48;;;;;;;8.10;3.58;;;;;;;20.01;69.17;99037.41;5034420;28;20514;-61
2021/06/29 06:28:14;;;;;;;10.95;3.50;;;;;;;20.25;68.22;99037.09;5034908;28;20059;-61
2021/06/29 06:30:41;;;;;;;8.93;3.40;;;;;;;19.30;70.97;99039.84;5034640;28;20044;-62
2021/06/29 06:33:07;;;;;;;6.50;4.05;;;;;;;18.96;73.15;99040.28;5034956;28;20379;-61
2021/06/29 06:35:32;;;;;;;6.72;3.65;;;;;;;18.92;73.83;99033.81;5034383;28;20184;-61
2021/06/29 06:37:57;;;;;;;4.22;3.20;;;;;;;19.03;73.33;99037.97;5034859;28;20384;-61
2021/06/29 06:40:23;;;;;;;5.03;3.20;;;;;;;19.56;71.18;99037.34;5034553;28;20037;-62
2021/06/29 06:42:48;;;;;;;7.10;3.35;;;;;;;19.44;70.58;99034.38;5033962;28;20029;-61
2021/06/29 06:45:14;;;;;;;7.53;3.42;;;;;;;19.73;69.28;99035.94;5032368;28;20025;-61
2021/06/29 06:47:39;;;;;;;4.10;2.78;;;;;;;19.98;69.56;99032.59;5014822;28;20101;-61
2021/06/29 06:50:06;;;;;;;6.50;3.35;;;;;;;19.44;71.04;99028.13;5014956;28;20100;-62
2021/06/29 06:52:33;;;;;;;5.63;3.00;;;;;;;19.82;69.60;99031.38;5033203;28;20025;-61
2021/06/29 06:54:58;;;;;;;4.07;3.03;;;;;;;19.77;69.62;99020.63;5034708;28;20087;-62
2021/06/29 06:57:24;;;;;;;4.78;3.22;;;;;;;19.36;70.51;99021.50;5034039;28;20038;-61
2021/06/29 06:59:49;;;;;;;5.43;2.90;;;;;;;19.01;72.37;99021.16;5034417;28;20075;-61
2021/06/29 07:02:15;;;;;;;5.93;3.10;;;;;;;18.73;72.06;99018.41;5014044;28;20457;-61
2021/06/29 07:04:41;;;;;;;5.13;2.70;;;;;;;18.73;72.41;99015.69;5014414;28;20124;-61
2021/06/29 07:07:06;;;;;;;5.18;2.60;;;;;;;18.93;71.06;99011.00;5014064;28;20491;-61
2021/06/29 07:09:31;;;;;;;7.20;2.88;;;;;;;19.09;71.18;99015.00;5014361;28;20033;-61
2021/06/29 07:11:58;;;;;;;3.67;2.80;;;;;;;19.59;70.04;99009.59;5029988;28;20045;-61
2021/06/29 07:14:23;;;;;;;9.50;2.85;;;;;;;19.78;68.46;99005.91;5033997;28;20472;-62
2021/06/29 07:16:48;;;;;;;3.67;2.65;;;;;;;19.74;68.76;99004.91;5032608;28;20037;-62
2021/06/29 07:19:14;;;;;;;4.80;2.45;;;;;;;20.13;67.96;99008.88;5033885;28;20053;-61
2021/06/29 07:21:40;;;;;;;4.60;2.53;;;;;;;20.51;65.68;99005.69;5033620;28;20048;-61
2021/06/29 07:24:06;;;;;;;3.97;2.53;;;;;;;21.19;62.94;99017.97;5016196;28;20029;-61
2021/06/29 07:26:31;;;;;;;3.30;2.20;;;;;;;22.48;59.10;99023.69;5033331;28;20033;-61
2021/06/29 07:28:57;;;;;;;4.53;2.30;;;;;;;23.88;55.15;99026.44;5033985;28;20060;-61
2021/06/29 07:31:22;;;;;;;6.47;2.58;;;;;;;23.96;53.62;99027.50;5021171;28;20034;-62
2021/06/29 07:33:48;;;;;;;5.97;2.40;;;;;;;22.75;56.64;99029.88;5014047;28;20034;-61
2021/06/29 07:36:15;;;;;;;6.13;2.50;;;;;;;22.81;56.34;99028.56;5013693;28;20072;-62
2021/06/29 07:38:41;;;;;;;4.07;2.22;;;;;;;23.20;55.53;99026.63;5014015;28;20049;-62
2021/06/29 07:41:06;;;;;;;7.28;2.38;;;;;;;23.21;57.23;99031.75;5022778;28;20041;-62
2021/06/29 07:43:32;;;;;;;3.63;2.40;;;;;;;24.07;52.90;99032.22;5033541;28;20021;-62
2021/06/29 07:45:57;;;;;;;5.13;2.40;;;;;;;22.67;57.81;99047.13;5033048;28;20038;-62
2021/06/29 07:48:23;;;;;;;4.53;2.53;;;;;;;24.12;54.44;99031.22;5032238;28;20032;-62
2021/06/29 07:50:48;;;;;;;3.90;2.42;;;;;;;24.45;52.32;99033.13;5032924;28;20049;-62
2021/06/29 07:53:13;;;;;;;4.10;2.60;;;;;;;23.70;54.44;99033.97;5031984;28;20464;-62
2021/06/29 07:55:39;;;;;;;4.93;2.33;;;;;;;25.70;50.59;99033.56;5027751;28;20094;-62
2021/06/29 07:58:04;;;;;;;9.35;2.70;;;;;;;23.32;57.07;99021.22;5012397;28;20022;-62
2021/06/29 08:00:30;;;;;;;12.32;2.90;;;;;;;25.02;51.35;99024.06;5012889;28;20038;-63
2021/06/29 08:02:56;;;;;;;5.57;2.60;;;;;;;24.30;53.66;99035.38;5013445;28;20029;-62
2021/06/29 08:05:21;;;;;;;4.68;2.88;;;;;;;22.53;58.52;99030.91;5013160;28;20030;-62
2021/06/29 08:07:47;;;;;;;7.20;2.50;;;;;;;23.08;58.50;99032.00;5013564;28;20496;-62
2021/06/29 08:10:12;;;;;;;7.35;3.10;;;;;;;20.65;66.29;99028.22;5013078;28;20021;-62
2021/06/29 08:12:38;;;;;;;7.10;2.47;;;;;;;21.38;63.32;99030.50;5012297;28;20022;-63
2021/06/29 08:15:04;;;;;;;4.20;2.90;;;;;;;24.24;55.06;99028.53;5012845;28;20101;-62
2021/06/29 08:17:30;;;;;;;8.68;2.70;;;;;;;22.44;60.58;99030.97;5013143;28;20025;-61
2021/06/29 08:19:55;;;;;;;6.43;2.72;;;;;;;21.46;63.93;99033.25;5012921;28;20527;-62
2021/06/29 08:22:21;;;;;;;6.40;3.00;;;;;;;21.67;62.34;99025.25;5012513;28;20038;-62
2021/06/29 08:24:47;;;;;;;4.13;2.67;;;;;;;20.76;65.47;99021.34;5011702;28;20026;-62
2021/06/29 08:27:14;;;;;;;4.95;2.97;;;;;;;20.37;67.38;99027.59;5012763;28;20049;-61
2021/06/29 08:29:41;;;;;;;7.38;2.92;;;;;;;21.50;64.30;99027.97;5011755;28;20109;-62
2021/06/29 08:32:07;;;;;;;5.93;2.70;;;;;;;20.92;66.56;99020.94;5012672;28;20037;-61
2021/06/29 08:34:32;;;;;;;6.97;3.05;;;;;;;20.44;66.73;99012.41;5013022;28;20358;-62
2021/06/29 08:36:58;;;;;;;6.20;2.70;;;;;;;21.29;64.54;99020.41;5012420;28;20042;-62
2021/06/29 08:39:24;;;;;;;7.70;2.80;;;;;;;20.37;68.19;99022.13;5013037;28;20029;-62
2021/06/29 08:41:49;;;;;;;4.97;2.72;;;;;;;20.40;67.95;99019.56;5012720;28;20034;-62
2021/06/29 08:44:14;;;;;;;4.95;2.63;;;;;;;20.92;65.95;99015.47;5011727;28;20026;-62
2021/06/29 08:46:40;;;;;;;7.57;2.95;;;;;;;21.69;63.20;99022.19;5012385;28;20054;-62
2021/06/29 08:49:06;;;;;;;5.88;2.80;;;;;;;21.49;63.99;99026.34;4995508;28;20465;-62
2021/06/29 08:51:31;;;;;;;4.63;2.72;;;;;;;20.93;65.87;99020.63;5012655;28;20179;-62
2021/06/29 08:53:57;;;;;;;3.50;2.50;;;;;;;20.94;65.41;99013.25;5012994;28;20076;-62
2021/06/29 08:56:22;;;;;;;5.05;2.88;;;;;;;20.44;66.47;99028.75;5011252;28;20403;-62
2021/06/29 08:58:48;;;;;;;12.73;2.72;;;;;;;21.69;63.13;99023.03;5012778;28;20058;-62
2021/06/29 09:01:14;;;;;;;4.03;2.60;;;;;;;20.52;65.80;99013.56;5012270;28;20042;-62
2021/06/29 09:03:40;;;;;;;4.05;2.70;;;;;;;21.14;65.45;99015.38;5013013;28;20041;-62
2021/06/29 09:06:05;;;;;;;7.15;2.85;;;;;;;21.79;62.98;99015.63;5015422;28;20042;-62
2021/06/29 09:08:39;;;;;;;5.60;2.45;;;;;;;22.76;59.84;99020.53;5016822;28;20385;-62
2021/06/29 09:11:11;;;;;;;3.53;2.53;;;;;;;23.85;56.43;99007.97;5016413;28;20033;-62
2021/06/29 09:13:38;;;;;;;4.72;2.58;;;;;;;23.43;56.37;99005.22;5016667;28;20022;-62
2021/06/29 09:16:03;;;;;;;3.08;2.20;;;;;;;26.07;50.49;99006.78;5016147;28;20034;-62
2021/06/29 09:18:31;;;;;;;4.47;2.55;;;;;;;25.86;50.10;99007.03;5016410;28;20025;-62
2021/06/29 09:21:00;;;;;;;3.20;2.30;;;;;;;23.72;54.73;99001.63;5014947;28;20042;-62
2021/06/29 09:23:26;;;;;;;5.20;2.60;;;;;;;24.66;52.94;98990.06;5015392;28;20030;-62
2021/06/29 09:25:54;;;;;;;5.20;2.60;;;;;;;25.84;48.37;98990.06;5016048;28;20117;-62
2021/06/29 09:28:21;;;;;;;4.03;2.30;;;;;;;27.38;46.19;98980.13;5016286;28;20029;-62
2021/06/29 09:31:04;;;;;;;3.78;2.30;;;;;;;27.73;44.31;98976.53;5016124;28;20033;-62
2021/06/29 09:33:32;;;;;;;4.05;2.33;;;;;;;28.02;42.83;98980.66;5015373;28;20044;-62
2021/06/29 09:35:58;;;;;;;6.13;2.53;;;;;;;25.44;48.06;98985.41;5015969;28;20034;-62
2021/06/29 09:38:32;;;;;;;4.70;2.60;;;;;;;27.72;43.88;98977.69;5014880;28;20030;-62
2021/06/29 09:41:03;;;;;;;6.63;2.40;;;;;;;27.37;44.93;98973.06;5014596;28;20042;-62
2021/06/29 09:43:31;;;;;;;5.25;2.60;;;;;;;30.13;37.66;98982.16;5016189;28;20550;-62
2021/06/29 09:46:00;;;;;;;6.25;2.30;;;;;;;28.44;40.95;98977.06;4997841;28;20069;-63
2021/06/29 09:48:34;;;;;;;9.88;2.53;;;;;;;27.23;44.63;98975.50;5015659;28;20084;-62
2021/06/29 09:51:05;;;;;;;3.40;2.38;;;;;;;28.10;43.43;98976.06;5015620;28;20117;-62
2021/06/29 09:53:32;;;;;;;8.98;2.58;;;;;;;26.71;44.94;98977.44;5015957;28;20554;-63
2021/06/29 09:55:59;;;;;;;3.00;2.35;;;;;;;28.24;42.30;98981.06;5015715;28;20033;-63
2021/06/29 09:58:24;;;;;;;5.13;2.60;;;;;;;25.43;49.10;98978.31;5015938;28;20087;-63
2021/06/29 10:00:51;;;;;;;4.28;2.20;;;;;;;25.88;49.16;98969.00;5013943;28;20503;-63
2021/06/29 10:03:26;;;;;;;5.78;2.70;;;;;;;25.30;49.56;98968.53;5015801;28;20084;-62
2021/06/29 10:05:52;;;;;;;4.63;2.60;;;;;;;24.64;50.62;98964.94;5013871;28;20038;-62
2021/06/29 10:08:22;;;;;;;4.95;2.85;;;;;;;23.89;54.53;98957.72;5015847;28;20022;-63
2021/06/29 10:10:48;;;;;;;5.70;2.50;;;;;;;26.02;48.01;98955.66;5015384;28;20049;-63
2021/06/29 10:13:17;;;;;;;4.53;2.80;;;;;;;25.56;48.15;98949.69;5014296;28;20021;-62
2021/06/29 10:15:42;;;;;;;5.75;2.70;;;;;;;25.61;48.20;98952.19;5014355;28;20080;-63
2021/06/29 10:18:09;;;;;;;5.20;2.90;;;;;;;24.01;52.02;98953.38;5013603;28;20026;-62
2021/06/29 10:20:49;;;;;;;8.25;2.67;;;;;;;25.06;50.83;98958.38;5014913;28;20049;-63
2021/06/29 10:23:16;;;;;;;5.55;2.47;;;;;;;25.83;48.59;98952.75;4999692;28;20053;-62
2021/06/29 10:25:41;;;;;;;16.33;2.95;;;;;;;26.32;48.30;98946.22;5013590;28;20500;-63
2021/06/29 10:28:06;;;;;;;14.45;2.90;;;;;;;26.72;47.07;98943.28;5014071;28;20033;-63
2021/06/29 10:30:32;;;;;;;11.05;3.00;;;;;;;25.02;49.54;98950.03;5013509;28;20391;-63
2021/06/29 10:32:57;;;;;;;10.68;2.83;;;;;;;24.63;50.92;98951.56;4997553;28;20072;-62
2021/06/29 10:35:23;;;;;;;14.80;2.90;;;;;;;23.81;52.89;98944.91;4997473;28;20410;-62
2021/06/29 10:37:48;;;;;;;10.15;3.10;;;;;;;23.17;55.35;98940.59;5014214;28;20049;-62
2021/06/29 10:40:15;;;;;;;7.13;2.80;;;;;;;24.15;52.26;98945.66;4997098;28;20048;-62
2021/06/29 10:42:42;;;;;;;7.25;3.15;;;;;;;25.20;50.61;98936.09;5013928;28;20105;-62
2021/06/29 10:45:12;;;;;;;10.63;2.90;;;;;;;25.56;48.54;98933.25;4997122;28;20029;-63
2021/06/29 10:47:39;;;;;;;;;;;;;;;25.40;49.15;98940.59;5015404;28;20476;-63
2021/06/29 10:50:07;;;;;;;9.75;2.90;;;;;;;24.97;50.15;98922.88;5013458;28;19909;-63
2021/06/29 10:52:34;;;;;;;11.70;2.90;;;;;;;24.09;52.32;98922.41;5014989;28;20022;-62
2021/06/29 10:55:01;;;;;;;11.77;3.00;;;;;;;24.65;51.82;98925.41;5014935;28;20025;-62
2021/06/29 10:57:43;;;;;;;12.05;3.47;;;;;;;24.50;50.20;98926.09;5014484;28;20510;-62
2021/06/29 11:00:22;;;;;;;7.32;3.00;;;;;;;24.64;51.09;98928.50;5014200;28;20026;-62
2021/06/29 11:02:56;;;;;;;7.32;3.10;;;;;;;24.29;50.33;98927.00;5014479;28;20053;-62
2021/06/29 11:05:22;;;;;;;7.25;3.42;;;;;;;23.84;52.44;98933.28;5014161;28;20049;-62
2021/06/29 11:07:49;;;;;;;7.43;2.90;;;;;;;24.92;50.12;98925.84;5013234;28;20385;-63
2021/06/29 11:10:31;;;;;;;4.22;2.80;;;;;;;25.45;47.68;98926.63;5013971;28;20757;-63
2021/06/29 11:13:00;;;;;;;7.38;3.00;;;;;;;26.86;44.32;98932.63;5014801;28;20026;-63
2021/06/29 11:15:42;;;;;;;6.53;3.30;;;;;;;24.85;48.81;98936.59;5014032;28;20436;-63
2021/06/29 11:18:08;;;;;;;7.05;3.03;;;;;;;24.72;50.09;98922.09;5014277;28;20026;-63
2021/06/29 11:20:42;;;;;;;12.15;3.00;;;;;;;26.44;45.92;98930.44;5012518;28;20116;-63
2021/06/29 11:23:11;;;;;;;9.38;3.50;;;;;;;26.07;46.45;98924.41;5013188;28;20104;-63
2021/06/29 11:25:40;;;;;;;10.85;2.90;;;;;;;26.17;45.65;98928.59;5013907;28;20038;-63
2021/06/29 11:28:10;;;;;;;7.35;2.95;;;;;;;25.86;47.22;98930.16;5013678;28;20026;-64